Time;durP1;ratioP1;P1;durP2;ratioP2;P2;SDS_P1;SDS_P2;PMS_P1;PMS_P2;Temp;Humidity;BMP_temperature;BMP_pressure;BME280_temperature;BME280_humidity;BME280_pressure;Samples;Min_cycle;Max_cycle;Signal;HPM_P1;HPM_P2
2023/05/26 00:01:34;;;;;;;45.17;29.45;;;;;;;;;;10359776;28;20033;-79
2023/05/26 00:06:35;;;;;;;43.65;28.50;;;;;;;;;;10356452;28;20030;-80
2023/05/26 00:11:36;;;;;;;47.83;30.17;;;;;;;;;;10357328;28;20025;-79
2023/05/26 00:16:37;;;;;;;37.55;27.05;;;;;;;;;;10356276;28;20439;-81
2023/05/26 00:21:39;;;;;;;46.35;30.13;;;;;;;;;;10359954;28;20079;-79
2023/05/26 00:26:42;;;;;;;50.63;29.73;;;;;;;;;;10356084;28;20413;-79
2023/05/26 00:31:43;;;;;;;44.38;28.60;;;;;;;;;;10355110;28;20061;-79
2023/05/26 00:36:44;;;;;;;39.03;26.05;;;;;;;;;;10372998;28;20057;-79
2023/05/26 00:41:45;;;;;;;43.05;27.98;;;;;;;;;;10355010;28;20112;-80
2023/05/26 00:46:47;;;;;;;49.90;29.95;;;;;;;;;;10354990;28;20389;-79
2023/05/26 00:51:48;;;;;;;55.03;30.00;;;;;;;;;;10361769;28;20385;-82
2023/05/26 00:56:51;;;;;;;45.28;27.92;;;;;;;;;;10355064;28;20042;-81
2023/05/26 01:01:52;;;;;;;43.15;27.00;;;;;;;;;;10362632;28;20042;-83
2023/05/26 01:06:55;;;;;;;50.60;31.58;;;;;;;;;;10360334;28;20034;-84
2023/05/26 01:12:09;;;;;;;50.50;30.33;;;;;;;;;;10354951;28;20528;-83
2023/05/26 01:17:18;;;;;;;47.50;28.60;;;;;;;;;;10355323;28;20046;-79
2023/05/26 01:22:22;;;;;;;49.03;28.98;;;;;;;;;;10342194;28;20048;-81
2023/05/26 01:27:45;;;;;;;46.63;27.25;;;;;;;;;;10355642;28;20786;-79
2023/05/26 01:32:49;;;;;;;40.05;26.80;;;;;;;;;;10354302;28;20046;-80
2023/05/26 01:37:56;;;;;;;56.03;33.08;;;;;;;;;;10354103;28;20037;-79
2023/05/26 01:43:05;;;;;;;61.38;33.00;;;;;;;;;;10354024;28;20038;-79
2023/05/26 01:48:07;;;;;;;56.55;32.83;;;;;;;;;;10354248;28;20506;-79
2023/05/26 01:53:12;;;;;;;49.35;29.10;;;;;;;;;;10353896;28;20056;-79
2023/05/26 01:58:13;;;;;;;53.15;30.17;;;;;;;;;;10362473;28;20041;-79
2023/05/26 02:03:17;;;;;;;58.78;32.83;;;;;;;;;;10374529;28;20129;-79
2023/05/26 02:08:18;;;;;;;68.05;37.05;;;;;;;;;;10354565;28;20041;-80
2023/05/26 02:13:19;;;;;;;52.15;33.97;;;;;;;;;;10359283;28;20495;-78
2023/05/26 02:18:21;;;;;;;53.50;33.70;;;;;;;;;;10366052;28;20049;-85
2023/05/26 02:23:22;;;;;;;56.67;33.42;;;;;;;;;;10360697;28;20154;-84
2023/05/26 02:28:23;;;;;;;53.67;33.45;;;;;;;;;;10360120;28;20033;-83
2023/05/26 02:33:23;;;;;;;69.72;38.75;;;;;;;;;;10366128;28;20060;-79
2023/05/26 02:38:25;;;;;;;92.38;43.05;;;;;;;;;;10359365;28;20378;-79
2023/05/26 02:43:26;;;;;;;74.72;39.85;;;;;;;;;;10359308;28;20028;-82
2023/05/26 02:48:27;;;;;;;71.70;39.40;;;;;;;;;;10362807;28;20022;-81
2023/05/26 02:53:27;;;;;;;80.25;42.90;;;;;;;;;;10359416;28;20026;-79
2023/05/26 02:58:29;;;;;;;65.65;37.78;;;;;;;;;;10431922;28;20132;-83
2023/05/26 03:03:30;;;;;;;66.78;40.53;;;;;;;;;;10350219;28;20179;-80
2023/05/26 03:08:31;;;;;;;55.17;35.40;;;;;;;;;;10352537;28;20018;-79
2023/05/26 03:13:33;;;;;;;59.15;35.65;;;;;;;;;;10358936;28;20044;-79
2023/05/26 03:18:35;;;;;;;53.60;33.85;;;;;;;;;;10368291;28;20512;-82
2023/05/26 03:23:36;;;;;;;64.70;36.47;;;;;;;;;;10359778;28;20065;-83
2023/05/26 03:28:37;;;;;;;65.28;38.83;;;;;;;;;;10357578;28;20198;-79
2023/05/26 03:33:38;;;;;;;63.78;38.50;;;;;;;;;;10359469;28;20100;-79
2023/05/26 03:38:41;;;;;;;61.63;39.05;;;;;;;;;;10357288;28;20558;-79
2023/05/26 03:43:42;;;;;;;64.75;37.83;;;;;;;;;;10356770;28;20037;-79
2023/05/26 03:48:43;;;;;;;60.80;37.08;;;;;;;;;;10367676;28;20033;-79
2023/05/26 03:53:44;;;;;;;56.70;34.95;;;;;;;;;;10356852;28;20079;-79
2023/05/26 03:58:45;;;;;;;59.28;34.55;;;;;;;;;;10362505;28;20049;-79
2023/05/26 04:03:46;;;;;;;55.10;33.50;;;;;;;;;;10366244;28;20042;-78
2023/05/26 04:08:47;;;;;;;48.53;29.85;;;;;;;;;;10357619;28;20790;-80
2023/05/26 04:13:48;;;;;;;48.80;31.58;;;;;;;;;;10355865;28;20061;-78
2023/05/26 04:18:49;;;;;;;50.45;32.47;;;;;;;;;;10355851;28;20513;-79
2023/05/26 04:23:51;;;;;;;48.85;31.13;;;;;;;;;;10358665;28;20117;-79
2023/05/26 04:28:52;;;;;;;50.65;32.83;;;;;;;;;;10355757;28;20458;-80
2023/05/26 04:33:54;;;;;;;46.75;30.05;;;;;;;;;;10368721;28;20034;-80
2023/05/26 04:38:55;;;;;;;41.92;27.52;;;;;;;;;;10410202;28;20042;-81
2023/05/26 04:43:56;;;;;;;42.58;28.73;;;;;;;;;;10354407;28;20068;-84
2023/05/26 04:48:57;;;;;;;37.35;26.20;;;;;;;;;;10355820;28;20071;-80
2023/05/26 04:53:59;;;;;;;26.77;19.80;;;;;;;;;;10355246;28;20034;-80
2023/05/26 04:59:00;;;;;;;29.92;20.73;;;;;;;;;;10355193;28;20118;-84
2023/05/26 05:04:01;;;;;;;28.10;18.95;;;;;;;;;;10355679;28;20461;-80
2023/05/26 05:09:02;;;;;;;27.10;16.73;;;;;;;;;;10355495;28;20037;-81
2023/05/26 05:14:03;;;;;;;25.55;17.30;;;;;;;;;;10355258;28;20022;-79
2023/05/26 05:19:08;;;;;;;26.55;17.45;;;;;;;;;;10355154;28;20038;-80
2023/05/26 05:24:10;;;;;;;23.95;16.90;;;;;;;;;;10354961;28;20045;-79
2023/05/26 05:29:11;;;;;;;25.33;16.80;;;;;;;;;;10354989;28;20137;-82
2023/05/26 05:34:12;;;;;;;23.38;16.20;;;;;;;;;;10361641;28;20036;-79
2023/05/26 05:39:13;;;;;;;24.30;16.67;;;;;;;;;;10361070;28;20034;-79
2023/05/26 05:44:14;;;;;;;26.00;17.65;;;;;;;;;;10360939;28;20490;-81
2023/05/26 05:49:15;;;;;;;27.45;17.40;;;;;;;;;;10361244;28;20040;-81
2023/05/26 05:54:16;;;;;;;24.65;16.65;;;;;;;;;;10361055;28;20087;-81
2023/05/26 05:59:17;;;;;;;25.58;16.88;;;;;;;;;;10361179;28;20050;-79
2023/05/26 06:04:18;;;;;;;27.55;16.45;;;;;;;;;;10360943;28;20044;-79
2023/05/26 06:09:21;;;;;;;24.88;15.82;;;;;;;;;;10360313;28;20534;-82
2023/05/26 06:14:24;;;;;;;19.48;15.40;;;;;;;;;;10360595;28;20074;-83
2023/05/26 06:19:27;;;;;;;23.58;15.57;;;;;;;;;;10359963;28;20503;-81
2023/05/26 06:24:28;;;;;;;22.70;15.48;;;;;;;;;;10360137;28;20040;-79
2023/05/26 06:29:29;;;;;;;23.05;16.13;;;;;;;;;;10359905;28;20069;-82
2023/05/26 06:34:30;;;;;;;22.67;15.38;;;;;;;;;;10346880;28;20034;-81
2023/05/26 06:39:31;;;;;;;22.65;14.52;;;;;;;;;;10358931;28;20072;-81
2023/05/26 06:44:33;;;;;;;18.60;13.73;;;;;;;;;;10359267;28;20026;-79
2023/05/26 06:49:34;;;;;;;16.85;12.93;;;;;;;;;;10358439;28;20446;-78
2023/05/26 06:54:35;;;;;;;21.23;14.10;;;;;;;;;;10358592;28;20030;-83
2023/05/26 06:59:36;;;;;;;18.40;14.38;;;;;;;;;;10358736;28;20044;-81
2023/05/26 07:04:37;;;;;;;21.70;13.40;;;;;;;;;;10360480;28;20040;-82
2023/05/26 07:09:39;;;;;;;19.20;13.70;;;;;;;;;;10358687;28;20022;-79
2023/05/26 07:14:40;;;;;;;20.17;15.13;;;;;;;;;;10358643;28;20037;-80
2023/05/26 07:19:41;;;;;;;20.08;14.23;;;;;;;;;;10358092;28;20453;-84
2023/05/26 07:24:42;;;;;;;20.13;13.82;;;;;;;;;;10358151;28;20022;-80
2023/05/26 07:29:43;;;;;;;18.40;13.05;;;;;;;;;;10357868;28;20057;-80
2023/05/26 07:34:44;;;;;;;19.90;14.20;;;;;;;;;;10358275;28;20041;-82
2023/05/26 07:39:45;;;;;;;18.88;12.70;;;;;;;;;;10357839;28;20064;-80
2023/05/26 07:44:46;;;;;;;21.35;14.07;;;;;;;;;;10357060;28;20129;-79
2023/05/26 07:49:47;;;;;;;22.60;14.93;;;;;;;;;;10358109;28;20033;-83
2023/05/26 07:54:48;;;;;;;18.20;13.18;;;;;;;;;;10356266;28;20389;-79
2023/05/26 07:59:49;;;;;;;17.73;13.20;;;;;;;;;;10357024;28;20034;-83
2023/05/26 08:04:50;;;;;;;20.38;13.20;;;;;;;;;;10357087;28;20028;-79
2023/05/26 08:09:52;;;;;;;20.25;13.73;;;;;;;;;;10356788;28;20113;-79
2023/05/26 08:14:54;;;;;;;16.48;12.65;;;;;;;;;;10355593;28;20033;-82
2023/05/26 08:19:55;;;;;;;18.23;12.82;;;;;;;;;;10356008;28;20409;-80
2023/05/26 08:24:57;;;;;;;16.77;11.65;;;;;;;;;;10356455;28;20040;-79
2023/05/26 08:29:59;;;;;;;16.50;11.10;;;;;;;;;;10424074;28;20050;-79
2023/05/26 08:35:00;;;;;;;19.65;11.23;;;;;;;;;;10355585;28;20041;-80
2023/05/26 08:40:04;;;;;;;16.02;11.27;;;;;;;;;;10355739;28;20138;-85
2023/05/26 08:45:05;;;;;;;14.15;9.80;;;;;;;;;;10424637;28;20084;-79
2023/05/26 08:50:06;;;;;;;11.57;8.95;;;;;;;;;;10356219;28;20038;-79
2023/05/26 08:55:09;;;;;;;10.40;8.80;;;;;;;;;;10355769;28;20026;-80
2023/05/26 09:00:12;;;;;;;13.50;9.18;;;;;;;;;;10354728;28;20049;-80
2023/05/26 09:05:14;;;;;;;11.02;8.20;;;;;;;;;;10359539;28;20029;-80
2023/05/26 09:10:21;;;;;;;10.15;7.45;;;;;;;;;;10361851;28;20481;-79
2023/05/26 09:15:22;;;;;;;14.63;9.07;;;;;;;;;;10362460;28;20030;-79
2023/05/26 09:20:27;;;;;;;13.63;7.43;;;;;;;;;;10361781;28;20107;-83
2023/05/26 09:25:30;;;;;;;11.15;8.13;;;;;;;;;;10360718;28;20026;-79
2023/05/26 09:30:40;;;;;;;12.85;10.00;;;;;;;;;;10361502;28;20088;-79
2023/05/26 09:35:42;;;;;;;12.75;9.13;;;;;;;;;;10361634;28;20040;-79
2023/05/26 09:40:43;;;;;;;12.82;9.43;;;;;;;;;;10361186;28;20038;-79
2023/05/26 09:45:44;;;;;;;17.23;11.05;;;;;;;;;;10361167;28;20037;-80
2023/05/26 09:50:45;;;;;;;14.85;10.43;;;;;;;;;;10361300;28;20044;-83
2023/05/26 09:55:47;;;;;;;19.20;13.30;;;;;;;;;;10360637;28;20033;-80
2023/05/26 10:00:48;;;;;;;17.20;11.95;;;;;;;;;;10360981;28;20125;-80
2023/05/26 10:05:49;;;;;;;14.30;11.50;;;;;;;;;;10360925;28;20050;-79
2023/05/26 10:10:51;;;;;;;13.40;10.32;;;;;;;;;;10360301;28;20022;-82
2023/05/26 10:15:52;;;;;;;14.40;9.75;;;;;;;;;;10358331;28;20034;-82
2023/05/26 10:20:54;;;;;;;13.65;8.95;;;;;;;;;;10360170;28;20045;-83
2023/05/26 10:26:03;;;;;;;14.75;9.50;;;;;;;;;;10359973;28;20041;-83
2023/05/26 10:31:04;;;;;;;11.40;8.75;;;;;;;;;;10359967;28;20049;-85
2023/05/26 10:36:14;;;;;;;12.25;7.97;;;;;;;;;;10359797;28;20427;-79
2023/05/26 10:41:31;;;;;;;10.55;8.23;;;;;;;;;;10359738;28;20090;-80
2023/05/26 10:46:47;;;;;;;12.25;9.30;;;;;;;;;;10358832;28;20030;-84
2023/05/26 10:51:50;;;;;;;7.28;5.65;;;;;;;;;;10358973;28;20061;-80
2023/05/26 10:56:53;;;;;;;9.77;5.50;;;;;;;;;;10345894;28;20369;-79
2023/05/26 11:01:54;;;;;;;13.85;6.00;;;;;;;;;;10358541;28;20469;-80
2023/05/26 11:07:00;;;;;;;9.27;5.25;;;;;;;;;;10358613;28;20042;-81
2023/05/26 11:12:05;;;;;;;7.70;5.35;;;;;;;;;;10359129;28;20036;-80
2023/05/26 11:17:06;;;;;;;7.15;5.15;;;;;;;;;;10357854;28;20103;-79
2023/05/26 11:22:12;;;;;;;9.27;5.35;;;;;;;;;;10356809;28;20533;-79
2023/05/26 11:27:13;;;;;;;7.40;5.18;;;;;;;;;;10358315;28;20022;-79
2023/05/26 11:32:16;;;;;;;11.30;5.55;;;;;;;;;;10358250;28;20046;-79
2023/05/26 11:37:19;;;;;;;8.07;5.20;;;;;;;;;;10383277;28;20044;-80
2023/05/26 11:42:20;;;;;;;9.70;5.43;;;;;;;;;;10399768;28;20692;-83
2023/05/26 11:47:21;;;;;;;6.18;4.63;;;;;;;;;;10357162;28;20029;-80
2023/05/26 11:52:23;;;;;;;10.15;5.55;;;;;;;;;;10357418;28;20087;-82
2023/05/26 11:57:33;;;;;;;9.32;5.47;;;;;;;;;;10356975;28;20030;-82
2023/05/26 12:02:34;;;;;;;7.40;4.72;;;;;;;;;;10357569;28;20029;-80
2023/05/26 12:07:39;;;;;;;12.25;5.47;;;;;;;;;;10356612;28;20053;-80
2023/05/26 12:12:47;;;;;;;10.23;5.30;;;;;;;;;;10345181;28;20033;-80
2023/05/26 12:17:50;;;;;;;8.32;4.85;;;;;;;;;;10341589;28;20042;-80
2023/05/26 12:22:51;;;;;;;8.57;4.57;;;;;;;;;;10336616;28;20026;-80
2023/05/26 12:27:52;;;;;;;5.70;3.85;;;;;;;;;;10354851;28;20107;-80
2023/05/26 12:32:53;;;;;;;10.38;5.43;;;;;;;;;;10351727;28;20140;-80
2023/05/26 12:37:54;;;;;;;8.20;4.75;;;;;;;;;;10354576;28;20113;-83
2023/05/26 12:42:55;;;;;;;9.13;4.78;;;;;;;;;;10357751;28;20034;-81
2023/05/26 12:47:56;;;;;;;7.68;4.38;;;;;;;;;;10355093;28;20541;-83
2023/05/26 12:52:57;;;;;;;9.30;4.80;;;;;;;;;;10355470;28;20030;-79
2023/05/26 12:57:58;;;;;;;9.57;5.15;;;;;;;;;;10388818;28;20053;-80
2023/05/26 13:03:00;;;;;;;5.95;4.15;;;;;;;;;;10394712;28;20120;-84
2023/05/26 13:08:01;;;;;;;7.70;4.45;;;;;;;;;;10355569;28;20042;-80
2023/05/26 13:13:02;;;;;;;8.63;5.03;;;;;;;;;;10345200;28;20057;-80
2023/05/26 13:18:03;;;;;;;8.43;4.90;;;;;;;;;;10357557;28;20113;-82
2023/05/26 13:23:04;;;;;;;9.52;4.80;;;;;;;;;;10358272;28;20113;-81
2023/05/26 13:28:06;;;;;;;10.63;5.35;;;;;;;;;;10382780;28;20026;-84
2023/05/26 13:33:07;;;;;;;11.05;4.85;;;;;;;;;;10367969;28;20058;-82
2023/05/26 13:38:08;;;;;;;10.43;5.10;;;;;;;;;;10350416;28;20065;-84
2023/05/26 13:43:10;;;;;;;10.10;5.47;;;;;;;;;;10354470;28;20117;-79
2023/05/26 13:48:11;;;;;;;7.57;4.20;;;;;;;;;;10355716;28;20067;-80
2023/05/26 13:53:14;;;;;;;9.82;4.95;;;;;;;;;;10364856;28;20029;-80
2023/05/26 13:58:15;;;;;;;11.43;5.05;;;;;;;;;;10376348;28;20099;-82
2023/05/26 14:03:16;;;;;;;8.57;4.38;;;;;;;;;;10362358;28;20114;-81
2023/05/26 14:08:17;;;;;;;9.40;4.45;;;;;;;;;;10370713;28;20033;-80
2023/05/26 14:13:18;;;;;;;12.82;4.93;;;;;;;;;;10374275;28;20129;-82
2023/05/26 14:18:19;;;;;;;10.23;4.60;;;;;;;;;;10359794;28;20128;-81
2023/05/26 14:23:22;;;;;;;10.50;4.82;;;;;;;;;;10359306;28;20026;-82
2023/05/26 14:28:25;;;;;;;7.68;4.35;;;;;;;;;;10356877;28;20029;-82
2023/05/26 14:33:26;;;;;;;7.60;5.38;;;;;;;;;;10359697;28;20065;-80
2023/05/26 14:38:27;;;;;;;10.02;4.93;;;;;;;;;;10375351;28;20042;-79
2023/05/26 14:43:30;;;;;;;13.60;5.35;;;;;;;;;;10348693;28;20026;-79
2023/05/26 14:48:33;;;;;;;8.27;4.90;;;;;;;;;;10358856;28;20037;-80
2023/05/26 14:53:34;;;;;;;9.52;4.55;;;;;;;;;;10358521;28;20116;-80
2023/05/26 14:58:35;;;;;;;8.55;4.57;;;;;;;;;;10353122;28;20870;-84
2023/05/26 15:03:37;;;;;;;7.93;4.35;;;;;;;;;;10346755;28;20021;-81
2023/05/26 15:08:38;;;;;;;8.55;4.18;;;;;;;;;;10334670;28;20037;-79
2023/05/26 15:13:39;;;;;;;7.47;4.32;;;;;;;;;;10331468;28;20105;-78
2023/05/26 15:18:40;;;;;;;10.90;3.90;;;;;;;;;;10334597;28;20034;-78
2023/05/26 15:23:41;;;;;;;8.98;3.88;;;;;;;;;;10337734;28;20033;-83
2023/05/26 15:28:42;;;;;;;9.13;4.20;;;;;;;;;;10344666;28;20029;-79
2023/05/26 15:33:43;;;;;;;11.80;4.28;;;;;;;;;;10358071;28;20025;-79
2023/05/26 15:38:44;;;;;;;8.20;3.47;;;;;;;;;;10357804;28;20117;-79
2023/05/26 15:43:45;;;;;;;7.15;3.10;;;;;;;;;;10357179;28;20137;-81
2023/05/26 15:48:46;;;;;;;6.97;3.60;;;;;;;;;;10357429;28;20022;-79
2023/05/26 15:53:47;;;;;;;5.30;3.17;;;;;;;;;;10337418;28;20034;-79
2023/05/26 15:58:48;;;;;;;6.57;3.38;;;;;;;;;;10355497;28;20050;-82
2023/05/26 16:03:49;;;;;;;6.22;2.63;;;;;;;;;;10348304;28;20026;-79
2023/05/26 16:08:50;;;;;;;7.45;2.65;;;;;;;;;;10345025;28;20543;-79
2023/05/26 16:13:51;;;;;;;5.72;2.80;;;;;;;;;;10393258;28;20381;-83
2023/05/26 16:18:53;;;;;;;5.30;2.90;;;;;;;;;;10328618;28;20045;-80
2023/05/26 16:23:54;;;;;;;7.65;2.70;;;;;;;;;;10340169;28;20044;-79
2023/05/26 16:28:56;;;;;;;7.88;3.08;;;;;;;;;;10353577;28;20045;-79
2023/05/26 16:33:57;;;;;;;8.40;2.60;;;;;;;;;;10355639;28;20075;-79
2023/05/26 16:38:59;;;;;;;7.00;2.72;;;;;;;;;;10355870;28;20053;-78
2023/05/26 16:44:00;;;;;;;6.35;2.45;;;;;;;;;;10354712;28;20083;-81
2023/05/26 16:49:03;;;;;;;8.65;2.75;;;;;;;;;;10352088;28;20087;-82
2023/05/26 16:54:06;;;;;;;7.03;2.50;;;;;;;;;;10362550;28;20110;-80
2023/05/26 16:59:07;;;;;;;4.50;2.20;;;;;;;;;;10352207;28;20045;-79
2023/05/26 17:04:08;;;;;;;4.00;2.40;;;;;;;;;;10355564;28;20034;-79
2023/05/26 17:09:09;;;;;;;6.40;2.85;;;;;;;;;;10344361;28;20030;-79
2023/05/26 17:14:10;;;;;;;5.80;2.78;;;;;;;;;;10330165;28;20036;-82
2023/05/26 17:19:12;;;;;;;7.53;2.50;;;;;;;;;;10414079;28;20061;-80
2023/05/26 17:24:14;;;;;;;6.53;2.50;;;;;;;;;;10379937;28;20527;-85
2023/05/26 17:29:15;;;;;;;3.95;2.33;;;;;;;;;;10363281;28;20060;-83
2023/05/26 17:34:16;;;;;;;8.32;2.50;;;;;;;;;;10340940;28;20087;-83
2023/05/26 17:39:17;;;;;;;6.65;2.72;;;;;;;;;;10363557;28;20037;-84
2023/05/26 17:44:21;;;;;;;10.55;3.50;;;;;;;;;;10361823;28;20038;-80
2023/05/26 17:49:24;;;;;;;8.48;2.45;;;;;;;;;;10368442;28;20137;-80
2023/05/26 17:54:28;;;;;;;11.25;3.65;;;;;;;;;;10354036;28;20034;-80
2023/05/26 17:59:29;;;;;;;10.43;2.50;;;;;;;;;;10354867;28;20045;-80
2023/05/26 18:04:30;;;;;;;10.05;2.90;;;;;;;;;;10426137;28;20046;-82
2023/05/26 18:09:32;;;;;;;9.73;3.08;;;;;;;;;;10354874;28;20046;-80
2023/05/26 18:14:33;;;;;;;10.40;3.45;;;;;;;;;;10351951;28;20040;-83
2023/05/26 18:19:34;;;;;;;14.20;3.42;;;;;;;;;;10427630;28;20142;-79
2023/05/26 18:24:35;;;;;;;8.77;3.30;;;;;;;;;;10380504;28;20027;-79
2023/05/26 18:29:38;;;;;;;11.63;3.42;;;;;;;;;;10385152;28;20046;-80
2023/05/26 18:34:39;;;;;;;6.57;2.90;;;;;;;;;;10414502;28;20057;-80
2023/05/26 18:39:40;;;;;;;8.82;3.08;;;;;;;;;;10372872;28;20048;-80
2023/05/26 18:44:41;;;;;;;8.05;2.90;;;;;;;;;;10346758;28;20040;-80
2023/05/26 18:49:42;;;;;;;4.50;2.90;;;;;;;;;;10366317;28;20445;-79
2023/05/26 18:54:43;;;;;;;9.90;3.00;;;;;;;;;;10359878;28;20041;-80
2023/05/26 18:59:44;;;;;;;10.40;3.85;;;;;;;;;;10356606;28;21059;-80
2023/05/26 19:04:45;;;;;;;9.77;4.07;;;;;;;;;;10353102;28;20038;-80
2023/05/26 19:09:47;;;;;;;10.98;3.78;;;;;;;;;;10396120;28;20049;-83
2023/05/26 19:14:48;;;;;;;10.35;4.13;;;;;;;;;;10357185;28;20034;-84
2023/05/26 19:19:49;;;;;;;11.85;3.58;;;;;;;;;;10409902;28;20109;-84
2023/05/26 19:24:50;;;;;;;5.95;3.03;;;;;;;;;;10413509;28;20040;-83
2023/05/26 19:29:51;;;;;;;10.23;3.95;;;;;;;;;;10347027;28;20046;-80
2023/05/26 19:34:52;;;;;;;9.88;3.63;;;;;;;;;;10361158;28;20397;-80
2023/05/26 19:39:55;;;;;;;7.93;3.63;;;;;;;;;;10359881;28;20045;-80
2023/05/26 19:44:56;;;;;;;11.85;4.00;;;;;;;;;;10359231;28;20041;-82
2023/05/26 19:49:57;;;;;;;9.93;4.10;;;;;;;;;;10350482;28;20041;-81
2023/05/26 19:54:59;;;;;;;9.77;4.45;;;;;;;;;;10360530;28;20026;-81
2023/05/26 20:00:01;;;;;;;9.55;4.40;;;;;;;;;;10348951;28;20050;-81
2023/05/26 20:05:01;;;;;;;8.18;3.53;;;;;;;;;;10366049;28;20033;-80
2023/05/26 20:10:03;;;;;;;10.70;4.47;;;;;;;;;;10363376;28;20505;-80
2023/05/26 20:15:04;;;;;;;9.15;4.40;;;;;;;;;;10367964;28;20042;-81
2023/05/26 20:20:06;;;;;;;8.88;3.97;;;;;;;;;;10358032;28;20049;-80
2023/05/26 20:25:07;;;;;;;16.20;4.10;;;;;;;;;;10355596;28;20041;-83
2023/05/26 20:30:10;;;;;;;10.60;3.75;;;;;;;;;;10366147;28;20523;-85
2023/05/26 20:35:12;;;;;;;9.90;4.07;;;;;;;;;;10363704;28;20046;-83
2023/05/26 20:40:21;;;;;;;17.58;4.72;;;;;;;;;;10333549;28;20054;-83
2023/05/26 20:45:22;;;;;;;8.93;3.70;;;;;;;;;;10339244;28;20087;-82
2023/05/26 20:50:23;;;;;;;9.13;4.00;;;;;;;;;;10350327;28;20087;-82
2023/05/26 20:55:25;;;;;;;10.75;4.35;;;;;;;;;;10361051;28;20437;-81
2023/05/26 21:00:26;;;;;;;12.52;4.10;;;;;;;;;;10360697;28;20043;-81
2023/05/26 21:05:27;;;;;;;9.02;3.88;;;;;;;;;;10351321;28;20026;-81
2023/05/26 21:10:28;;;;;;;10.75;4.63;;;;;;;;;;10366682;28;20529;-84
2023/05/26 21:15:29;;;;;;;10.68;4.22;;;;;;;;;;10352695;28;20026;-81
2023/05/26 21:20:30;;;;;;;13.98;4.65;;;;;;;;;;10367305;28;20099;-83
2023/05/26 21:25:33;;;;;;;10.15;4.40;;;;;;;;;;10361285;28;20051;-81
2023/05/26 21:30:34;;;;;;;16.38;5.18;;;;;;;;;;10352626;28;20049;-81
2023/05/26 21:35:35;;;;;;;12.85;4.72;;;;;;;;;;10362251;28;20036;-81
2023/05/26 21:40:36;;;;;;;13.05;4.90;;;;;;;;;;10366754;28;20529;-83
2023/05/26 21:45:37;;;;;;;10.98;4.25;;;;;;;;;;10345557;28;20513;-82
2023/05/26 21:50:39;;;;;;;16.10;5.43;;;;;;;;;;10367781;28;20140;-81
2023/05/26 21:55:40;;;;;;;11.13;4.47;;;;;;;;;;10361706;28;20050;-81
2023/05/26 22:00:42;;;;;;;14.20;5.68;;;;;;;;;;10354899;28;20095;-82
2023/05/26 22:05:43;;;;;;;10.75;4.85;;;;;;;;;;10363339;28;20041;-84
2023/05/26 22:10:45;;;;;;;11.13;4.90;;;;;;;;;;10348869;28;20043;-84
2023/05/26 22:15:46;;;;;;;15.80;5.28;;;;;;;;;;10356571;28;20532;-81
2023/05/26 22:20:47;;;;;;;9.32;4.07;;;;;;;;;;10362044;28;20038;-81
2023/05/26 22:25:48;;;;;;;10.68;4.85;;;;;;;;;;10357392;28;20109;-80
2023/05/26 22:30:59;;;;;;;12.23;5.00;;;;;;;;;;10348176;28;20125;-84
2023/05/26 22:36:01;;;;;;;12.18;4.45;;;;;;;;;;10370162;28;20062;-83
2023/05/26 22:41:02;;;;;;;13.05;5.18;;;;;;;;;;10358681;28;20048;-80
2023/05/26 22:46:03;;;;;;;15.68;5.32;;;;;;;;;;10358703;28;20034;-81
2023/05/26 22:51:04;;;;;;;12.95;4.78;;;;;;;;;;10359086;28;20104;-80
2023/05/26 22:56:07;;;;;;;12.32;4.32;;;;;;;;;;10351436;28;20129;-81
2023/05/26 23:01:09;;;;;;;11.30;4.45;;;;;;;;;;10348801;28;20068;-80
2023/05/26 23:06:12;;;;;;;14.07;5.30;;;;;;;;;;10355967;28;20037;-81
2023/05/26 23:11:13;;;;;;;12.80;4.32;;;;;;;;;;10356922;28;20044;-81
2023/05/26 23:16:14;;;;;;;12.05;4.80;;;;;;;;;;10349023;28;20030;-83
2023/05/26 23:21:15;;;;;;;8.05;3.53;;;;;;;;;;10366418;28;20065;-85
2023/05/26 23:26:16;;;;;;;14.18;5.47;;;;;;;;;;10346064;28;20042;-86
2023/05/26 23:31:17;;;;;;;11.50;4.47;;;;;;;;;;10343924;28;20111;-86
2023/05/26 23:36:18;;;;;;;10.80;5.03;;;;;;;;;;10357307;28;20163;-81
2023/05/26 23:41:19;;;;;;;19.63;5.00;;;;;;;;;;10345274;28;20110;-81
2023/05/26 23:46:20;;;;;;;13.43;4.95;;;;;;;;;;10347510;28;20030;-81
2023/05/26 23:51:21;;;;;;;16.52;5.15;;;;;;;;;;10356726;28;20030;-81
2023/05/26 23:56:22;;;;;;;19.50;5.30;;;;;;;;;;10355683;28;20042;-80
